Aviation Digital Data Service (ADDS)

Output produced by METARs form (1820 UTC 23 September 2014)
found at http://aviationweather.gov/adds/metars/
 
KSAN 231732Z 2318/2424 29009KT P6SM SKC 
     FM240200 30006KT P6SM SCT008 
     FM240700 VRB03KT 6SM BR BKN007 
     FM241200 VRB05KT 2SM BR BKN005 
     FM241600 VRB04KT P6SM SCT008 
     FM241900 28010KT P6SM FEW008